createdAt,value
2019-03-24T00:01:51.674Z,6.70
2019-03-24T00:04:12.233Z,6.70
2019-03-24T00:06:32.774Z,6.60
2019-03-24T00:08:53.837Z,6.50
2019-03-24T00:11:14.472Z,6.50
2019-03-24T00:13:35.054Z,6.50
2019-03-24T00:15:55.677Z,6.40
2019-03-24T00:18:16.429Z,6.50
2019-03-24T00:20:37.081Z,6.40
2019-03-24T00:22:57.708Z,6.40
2019-03-24T00:25:18.310Z,6.40
2019-03-24T00:27:38.929Z,6.40
2019-03-24T00:29:59.631Z,6.30
2019-03-24T00:32:20.312Z,6.30
2019-03-24T00:34:40.858Z,6.30
2019-03-24T00:37:01.459Z,6.20
2019-03-24T00:39:22.223Z,6.10
2019-03-24T00:41:42.851Z,6.10
2019-03-24T00:44:04.986Z,6.00
2019-03-24T00:46:25.811Z,6.10
2019-03-24T00:48:46.454Z,6.10
2019-03-24T00:51:07.034Z,6.10
2019-03-24T00:53:27.594Z,6.00
2019-03-24T00:55:48.396Z,5.90
2019-03-24T00:58:09.007Z,5.90
2019-03-24T01:00:46.869Z,5.90
2019-03-24T01:03:07.418Z,5.80
2019-03-24T01:05:28.094Z,5.80
2019-03-24T01:07:48.704Z,5.90
2019-03-24T01:10:09.951Z,5.80
2019-03-24T01:12:30.717Z,5.80
2019-03-24T01:14:51.273Z,5.80
2019-03-24T01:17:13.015Z,5.70
2019-03-24T01:19:33.637Z,5.60
2019-03-24T01:21:54.228Z,5.60
2019-03-24T01:24:14.853Z,5.70
2019-03-24T01:26:35.500Z,5.70
2019-03-24T01:28:56.041Z,5.60
2019-03-24T01:31:16.585Z,5.60
2019-03-24T01:33:37.158Z,5.60
2019-03-24T01:35:57.757Z,5.50
2019-03-24T01:38:18.526Z,5.50
2019-03-24T01:40:39.083Z,5.50
2019-03-24T01:42:59.785Z,5.50
2019-03-24T01:45:20.324Z,5.40
2019-03-24T01:47:40.855Z,5.50
2019-03-24T01:50:01.462Z,5.50
2019-03-24T01:52:22.041Z,5.40
2019-03-24T01:54:42.626Z,5.40
2019-03-24T01:57:03.249Z,5.40
2019-03-24T01:59:23.868Z,5.30
2019-03-24T02:01:45.981Z,5.20
2019-03-24T02:04:06.589Z,5.20
2019-03-24T02:06:27.216Z,5.30
2019-03-24T02:08:47.779Z,5.20
2019-03-24T02:11:08.302Z,5.20
2019-03-24T02:13:29.127Z,5.00
2019-03-24T02:15:51.393Z,5.00
2019-03-24T02:18:12.044Z,5.00
2019-03-24T02:20:32.720Z,5.00
2019-03-24T02:22:53.244Z,5.00
2019-03-24T02:25:13.975Z,5.10
2019-03-24T02:27:53.965Z,5.10
2019-03-24T02:30:14.950Z,5.20
2019-03-24T02:32:35.591Z,5.20
2019-03-24T02:34:56.213Z,5.10
2019-03-24T02:37:16.770Z,5.00
2019-03-24T02:39:37.464Z,4.90
2019-03-24T02:41:58.004Z,4.90
2019-03-24T02:44:18.653Z,4.90
2019-03-24T02:46:39.182Z,4.90
2019-03-24T02:48:59.871Z,4.90
2019-03-24T02:51:20.510Z,4.80
2019-03-24T02:53:41.063Z,4.80
2019-03-24T02:56:01.702Z,4.70
2019-03-24T02:58:22.308Z,4.70
2019-03-24T03:00:42.925Z,4.70
2019-03-24T03:03:04.590Z,4.70
2019-03-24T03:05:25.254Z,4.70
2019-03-24T03:07:46.371Z,4.70
2019-03-24T03:10:07.715Z,4.70
2019-03-24T03:12:28.335Z,4.60
2019-03-24T03:14:49.003Z,4.70
2019-03-24T03:17:09.651Z,4.60
2019-03-24T03:19:30.829Z,4.60
2019-03-24T03:21:51.406Z,4.60
2019-03-24T03:24:12.080Z,4.60
2019-03-24T03:26:32.719Z,4.60
2019-03-24T03:28:53.244Z,4.50
2019-03-24T03:31:13.862Z,4.40
2019-03-24T03:33:34.434Z,4.40
2019-03-24T03:35:55.051Z,4.50
2019-03-24T03:38:15.665Z,4.40
2019-03-24T03:40:36.287Z,4.40
2019-03-24T03:42:56.845Z,4.40
2019-03-24T03:45:20.514Z,4.30
2019-03-24T03:47:41.099Z,4.30
2019-03-24T03:50:01.660Z,4.20
2019-03-24T03:52:22.222Z,4.30
2019-03-24T03:54:42.820Z,4.30
2019-03-24T03:57:03.421Z,4.20
2019-03-24T03:59:23.982Z,4.20
2019-03-24T04:01:44.676Z,4.20
2019-03-24T04:04:05.778Z,4.30
2019-03-24T04:06:26.463Z,4.30
2019-03-24T04:08:47.087Z,4.30
2019-03-24T04:11:07.732Z,4.30
2019-03-24T04:13:28.277Z,4.30
2019-03-24T04:15:48.989Z,4.40
2019-03-24T04:18:09.612Z,4.20
2019-03-24T04:20:30.263Z,4.30
2019-03-24T04:22:50.856Z,4.10
2019-03-24T04:25:11.554Z,4.10
2019-03-24T04:27:32.119Z,4.20
2019-03-24T04:29:52.681Z,4.20
2019-03-24T04:32:13.278Z,4.20
2019-03-24T04:34:33.930Z,4.20
2019-03-24T04:36:54.483Z,4.10
2019-03-24T04:39:15.031Z,4.10
2019-03-24T04:41:35.619Z,4.20
2019-03-24T04:43:56.202Z,4.10
2019-03-24T04:46:16.891Z,4.10
2019-03-24T04:48:37.542Z,4.20
2019-03-24T04:50:58.178Z,4.20
2019-03-24T04:53:20.712Z,4.20
2019-03-24T04:55:40.433Z,4.20
2019-03-24T04:58:01.072Z,4.10
2019-03-24T05:00:27.404Z,4.00
2019-03-24T05:02:47.945Z,4.00
2019-03-24T05:05:09.460Z,4.00
2019-03-24T05:07:31.025Z,4.00
2019-03-24T05:09:54.487Z,4.00
2019-03-24T05:12:14.852Z,4.00
2019-03-24T05:14:35.580Z,4.00
2019-03-24T05:16:56.103Z,4.00
2019-03-24T05:19:16.666Z,4.10
2019-03-24T05:21:37.230Z,4.10
2019-03-24T05:23:58.942Z,4.20
2019-03-24T05:26:19.570Z,4.20
2019-03-24T05:28:40.188Z,4.20
2019-03-24T05:31:00.931Z,4.30
2019-03-24T05:33:21.534Z,4.40
2019-03-24T05:35:43.118Z,4.40
2019-03-24T05:38:03.742Z,4.40
2019-03-24T05:40:24.269Z,4.50
2019-03-24T05:42:44.882Z,4.50
2019-03-24T05:45:08.550Z,4.50
2019-03-24T05:47:36.779Z,4.60
2019-03-24T05:49:52.825Z,4.70
2019-03-24T05:52:13.603Z,4.80
2019-03-24T05:54:34.174Z,4.80
2019-03-24T05:56:54.759Z,5.00
2019-03-24T05:59:15.363Z,5.00
2019-03-24T06:01:35.857Z,5.10
2019-03-24T06:03:56.426Z,5.20
2019-03-24T06:06:16.981Z,5.30
2019-03-24T06:08:37.516Z,5.30
2019-03-24T06:11:00.248Z,5.40
2019-03-24T06:13:19.874Z,5.50
2019-03-24T06:15:40.436Z,5.60
2019-03-24T06:18:01.004Z,5.70
2019-03-24T06:20:21.540Z,5.80
2019-03-24T06:22:42.161Z,6.00
2019-03-24T06:25:02.734Z,6.10
2019-03-24T06:27:23.295Z,6.60
2019-03-24T06:29:43.876Z,7.90
2019-03-24T06:32:04.550Z,9.30
2019-03-24T06:34:25.149Z,10.60
2019-03-24T06:36:45.675Z,11.80
2019-03-24T06:39:07.978Z,12.50
2019-03-24T06:41:28.557Z,12.90
2019-03-24T06:43:49.117Z,13.30
2019-03-24T06:46:09.351Z,13.50
2019-03-24T06:48:29.918Z,13.60
2019-03-24T06:50:49.956Z,14.20
2019-03-24T06:53:11.543Z,13.50
2019-03-24T06:55:31.844Z,12.40
2019-03-24T06:57:52.255Z,13.10
2019-03-24T07:00:13.687Z,14.40
2019-03-24T07:02:34.133Z,17.00
2019-03-24T07:04:54.406Z,17.70
2019-03-24T07:07:14.679Z,18.40
2019-03-24T07:09:35.058Z,18.60
2019-03-24T07:11:55.302Z,18.60
2019-03-24T07:14:15.579Z,19.40
2019-03-24T07:16:35.853Z,19.80
2019-03-24T07:18:56.093Z,20.00
2019-03-24T07:21:16.436Z,20.40
2019-03-24T07:23:36.840Z,20.90
2019-03-24T07:25:57.175Z,21.20
2019-03-24T07:28:17.655Z,21.50
2019-03-24T07:30:37.914Z,21.50
2019-03-24T07:32:58.247Z,21.40
2019-03-24T07:35:18.616Z,22.00
2019-03-24T07:37:39.031Z,21.70
2019-03-24T07:39:59.338Z,21.20
2019-03-24T07:42:19.664Z,21.10
2019-03-24T07:44:39.957Z,21.00
2019-03-24T07:47:00.329Z,21.10
2019-03-24T07:49:20.600Z,21.50
2019-03-24T07:51:40.835Z,22.30
2019-03-24T07:54:02.331Z,22.20
2019-03-24T07:56:22.844Z,22.70
2019-03-24T07:58:43.221Z,22.80
2019-03-24T08:01:03.474Z,22.10
2019-03-24T08:03:23.852Z,21.90
2019-03-24T08:05:44.175Z,22.10
2019-03-24T08:08:04.648Z,21.90
2019-03-24T08:10:25.041Z,22.10
2019-03-24T08:12:46.444Z,22.20
2019-03-24T08:15:06.847Z,21.20
2019-03-24T08:17:27.236Z,21.40
2019-03-24T08:19:47.987Z,22.30
2019-03-24T08:22:08.281Z,22.00
2019-03-24T08:24:28.719Z,22.70
2019-03-24T08:26:49.074Z,22.40
2019-03-24T08:29:09.388Z,23.20
2019-03-24T08:31:29.690Z,23.60
2019-03-24T08:33:49.976Z,23.80
2019-03-24T08:36:10.298Z,23.90
2019-03-24T08:38:30.552Z,24.10
2019-03-24T08:40:50.835Z,24.30
2019-03-24T08:43:11.177Z,24.10
2019-03-24T08:45:31.782Z,24.20
2019-03-24T08:47:51.970Z,24.00
2019-03-24T08:50:12.489Z,23.10
2019-03-24T08:52:32.799Z,22.80
2019-03-24T08:54:53.090Z,22.20
2019-03-24T08:57:13.426Z,21.80
2019-03-24T08:59:33.961Z,21.50
2019-03-24T09:01:54.629Z,21.50
2019-03-24T09:04:14.943Z,21.70
2019-03-24T09:06:35.360Z,22.40
2019-03-24T09:08:55.642Z,23.50
2019-03-24T09:11:16.046Z,23.20
2019-03-24T09:13:36.366Z,22.20
2019-03-24T09:15:56.763Z,21.90
2019-03-24T09:18:17.272Z,22.10
2019-03-24T09:20:41.943Z,22.70
2019-03-24T09:22:59.635Z,23.50
2019-03-24T09:25:20.050Z,23.00
2019-03-24T09:27:40.336Z,22.70
2019-03-24T09:30:00.739Z,23.10
2019-03-24T09:32:21.085Z,23.00
2019-03-24T09:34:41.467Z,23.10
2019-03-24T09:37:01.798Z,22.00
2019-03-24T09:39:22.166Z,21.70
2019-03-24T09:41:42.419Z,22.50
2019-03-24T09:44:02.710Z,22.10
2019-03-24T09:46:23.363Z,22.30
2019-03-24T09:48:43.667Z,22.80
2019-03-24T09:51:04.089Z,22.70
2019-03-24T09:53:24.391Z,22.20
2019-03-24T09:55:44.698Z,22.40
2019-03-24T09:58:05.121Z,22.30
2019-03-24T10:00:25.521Z,22.50
2019-03-24T10:02:45.810Z,22.30
2019-03-24T10:05:06.442Z,22.40
2019-03-24T10:07:26.737Z,22.30
2019-03-24T10:09:47.022Z,22.00
2019-03-24T10:12:07.367Z,22.20
2019-03-24T10:14:27.713Z,22.60
2019-03-24T10:16:47.994Z,23.10
2019-03-24T10:19:14.015Z,23.20
2019-03-24T10:21:30.226Z,23.80
2019-03-24T10:23:50.536Z,23.50
2019-03-24T10:26:10.764Z,23.70
2019-03-24T10:28:30.950Z,23.70
2019-03-24T10:30:50.948Z,23.40
2019-03-24T10:33:10.939Z,24.00
2019-03-24T10:35:30.931Z,23.40
2019-03-24T10:37:51.003Z,23.60
2019-03-24T10:40:11.331Z,23.40
2019-03-24T10:42:31.333Z,24.20
2019-03-24T10:44:51.629Z,23.30
2019-03-24T10:47:11.905Z,23.50
2019-03-24T10:49:32.170Z,24.10
2019-03-24T10:51:52.426Z,24.50
2019-03-24T10:54:12.849Z,25.20
2019-03-24T10:56:33.442Z,25.00
2019-03-24T10:58:53.692Z,24.60
2019-03-24T11:01:14.056Z,25.30
2019-03-24T11:03:35.380Z,24.30
2019-03-24T11:05:55.711Z,23.60
2019-03-24T11:08:16.075Z,23.50
2019-03-24T11:10:36.745Z,24.00
2019-03-24T11:12:57.262Z,23.50
2019-03-24T11:15:17.571Z,23.60
2019-03-24T11:17:38.201Z,23.10
2019-03-24T11:20:01.319Z,23.90
2019-03-24T11:22:21.717Z,24.60
2019-03-24T11:24:42.007Z,24.00
2019-03-24T11:27:02.322Z,24.40
2019-03-24T11:29:22.412Z,25.00
2019-03-24T11:31:42.780Z,25.10
2019-03-24T11:34:03.066Z,25.50
2019-03-24T11:36:23.402Z,25.40
2019-03-24T11:38:44.128Z,24.90
2019-03-24T11:41:04.594Z,25.00
2019-03-24T11:43:26.124Z,24.40
2019-03-24T11:45:46.377Z,24.40
2019-03-24T11:48:06.766Z,25.40
2019-03-24T11:50:27.192Z,24.90
2019-03-24T11:52:47.471Z,23.40
2019-03-24T11:55:09.317Z,24.80
2019-03-24T11:57:29.741Z,25.20
2019-03-24T11:59:50.079Z,25.60
2019-03-24T12:02:10.434Z,26.30
2019-03-24T12:04:30.792Z,26.70
2019-03-24T12:06:51.023Z,26.70
2019-03-24T12:09:11.368Z,25.50
2019-03-24T12:11:31.646Z,25.20
2019-03-24T12:13:52.031Z,25.50
2019-03-24T12:16:12.367Z,25.50
2019-03-24T12:18:32.732Z,26.00
2019-03-24T12:20:53.095Z,26.30
2019-03-24T12:23:13.374Z,25.70
2019-03-24T12:25:33.879Z,26.20
2019-03-24T12:27:55.395Z,25.40
2019-03-24T12:30:16.332Z,26.00
2019-03-24T12:32:36.825Z,26.40
2019-03-24T12:34:57.175Z,25.20
2019-03-24T12:37:17.474Z,26.00
2019-03-24T12:39:37.881Z,27.90
2019-03-24T12:41:58.199Z,26.70
2019-03-24T12:44:18.546Z,26.20
2019-03-24T12:46:39.134Z,26.70
2019-03-24T12:48:59.402Z,26.60
2019-03-24T12:51:19.708Z,27.00
2019-03-24T12:53:40.038Z,27.40
2019-03-24T12:56:01.516Z,27.20
2019-03-24T12:58:21.878Z,26.90
2019-03-24T13:00:42.367Z,26.70
2019-03-24T13:03:02.871Z,26.60
2019-03-24T13:05:23.236Z,26.80
2019-03-24T13:07:43.478Z,26.70
2019-03-24T13:10:07.507Z,26.20
2019-03-24T13:12:27.727Z,26.80
2019-03-24T13:14:49.430Z,27.30
2019-03-24T13:17:10.106Z,27.90
2019-03-24T13:19:30.428Z,28.70
2019-03-24T13:21:50.710Z,27.70
2019-03-24T13:24:11.025Z,27.00
2019-03-24T13:26:31.314Z,27.50
2019-03-24T13:28:51.648Z,28.00
2019-03-24T13:31:12.005Z,28.70
2019-03-24T13:33:32.436Z,28.90
2019-03-24T13:35:54.431Z,28.00
2019-03-24T13:38:14.853Z,26.80
2019-03-24T13:40:41.031Z,26.80
2019-03-24T13:43:01.210Z,26.80
2019-03-24T13:45:21.255Z,26.80
2019-03-24T13:47:41.241Z,27.50
2019-03-24T13:50:01.196Z,27.20
2019-03-24T13:52:21.883Z,27.40
2019-03-24T13:54:41.856Z,28.10
2019-03-24T13:57:02.159Z,28.20
2019-03-24T13:59:22.490Z,28.10
2019-03-24T14:01:42.900Z,28.30
2019-03-24T14:04:03.465Z,27.50
2019-03-24T14:06:23.898Z,27.00
2019-03-24T14:08:44.131Z,26.90
2019-03-24T14:11:04.515Z,26.80
2019-03-24T14:13:24.808Z,27.40
2019-03-24T14:15:45.365Z,27.60
2019-03-24T14:18:06.031Z,27.80
2019-03-24T14:20:26.338Z,28.00
2019-03-24T14:22:46.664Z,27.90
2019-03-24T14:25:07.710Z,27.70
2019-03-24T14:27:27.701Z,27.20
2019-03-24T14:29:55.350Z,27.30
2019-03-24T14:32:18.315Z,27.40
2019-03-24T14:34:38.389Z,27.10
2019-03-24T14:36:58.371Z,26.80
2019-03-24T14:39:18.457Z,26.80
2019-03-24T14:41:38.536Z,27.60
2019-03-24T14:43:58.500Z,27.40
2019-03-24T14:46:18.546Z,27.30
2019-03-24T14:48:38.678Z,27.70
2019-03-24T14:50:58.815Z,27.00
2019-03-24T14:53:19.749Z,27.50
2019-03-24T14:55:39.832Z,28.00
2019-03-24T14:57:59.939Z,25.90
2019-03-24T15:00:28.731Z,24.80
2019-03-24T15:02:48.718Z,25.00
2019-03-24T15:05:09.461Z,26.00
2019-03-24T15:07:29.585Z,25.70
2019-03-24T15:09:49.794Z,26.50
2019-03-24T15:12:09.952Z,26.70
2019-03-24T15:14:31.385Z,27.00
2019-03-24T15:16:51.697Z,27.30
2019-03-24T15:19:12.031Z,27.20
2019-03-24T15:21:32.396Z,26.30
2019-03-24T15:23:52.583Z,26.20
2019-03-24T15:26:12.919Z,26.40
2019-03-24T15:28:33.156Z,26.50
2019-03-24T15:30:53.591Z,26.50
2019-03-24T15:33:13.943Z,26.90
2019-03-24T15:35:34.377Z,27.30
2019-03-24T15:38:06.616Z,27.10
2019-03-24T15:40:16.665Z,26.60
2019-03-24T15:42:37.023Z,25.20
2019-03-24T15:44:58.390Z,24.50
2019-03-24T15:47:18.868Z,23.80
2019-03-24T15:49:39.302Z,23.60
2019-03-24T15:51:59.495Z,23.30
2019-03-24T15:54:19.808Z,22.80
2019-03-24T15:56:40.056Z,22.60
2019-03-24T15:59:00.273Z,22.50
2019-03-24T16:01:20.636Z,22.30
2019-03-24T16:03:40.926Z,22.00
2019-03-24T16:06:01.240Z,21.90
2019-03-24T16:08:22.800Z,21.80
2019-03-24T16:10:43.090Z,21.80
2019-03-24T16:13:03.189Z,21.60
2019-03-24T16:15:23.363Z,21.60
2019-03-24T16:17:43.544Z,21.40
2019-03-24T16:20:06.441Z,21.30
2019-03-24T16:22:25.756Z,21.20
2019-03-24T16:24:45.727Z,21.10
2019-03-24T16:27:05.778Z,21.00
2019-03-24T16:29:25.974Z,20.90
2019-03-24T16:31:46.376Z,20.80
2019-03-24T16:34:07.077Z,20.70
2019-03-24T16:36:27.428Z,20.60
2019-03-24T16:38:49.168Z,20.60
2019-03-24T16:41:09.790Z,20.50
2019-03-24T16:43:29.973Z,20.40
2019-03-24T16:45:50.258Z,20.30
2019-03-24T16:48:10.441Z,20.20
2019-03-24T16:50:30.625Z,20.20
2019-03-24T16:52:50.936Z,20.10
2019-03-24T16:55:12.191Z,20.10
2019-03-24T16:57:32.548Z,20.00
2019-03-24T16:59:58.734Z,19.80
2019-03-24T17:02:20.668Z,19.70
2019-03-24T17:04:40.881Z,19.60
2019-03-24T17:07:02.089Z,19.50
2019-03-24T17:09:26.439Z,19.40
2019-03-24T17:11:46.684Z,19.40
2019-03-24T17:14:06.854Z,19.20
2019-03-24T17:16:27.596Z,19.20
2019-03-24T17:18:47.825Z,19.10
2019-03-24T17:21:08.131Z,19.00
2019-03-24T17:23:28.402Z,19.00
2019-03-24T17:25:48.627Z,18.80
2019-03-24T17:28:09.175Z,18.60
2019-03-24T17:30:29.535Z,18.50
2019-03-24T17:32:50.054Z,18.30
2019-03-24T17:35:10.695Z,18.20
2019-03-24T17:37:31.041Z,18.00
2019-03-24T17:39:51.269Z,17.90
2019-03-24T17:42:11.532Z,17.70
2019-03-24T17:44:31.741Z,17.70
2019-03-24T17:46:52.090Z,17.50
2019-03-24T17:49:12.400Z,17.30
2019-03-24T17:51:32.800Z,17.10
2019-03-24T17:53:53.119Z,17.00
2019-03-24T17:56:13.736Z,16.80
2019-03-24T17:58:34.383Z,16.80
2019-03-24T18:00:56.453Z,16.60
2019-03-24T18:03:16.793Z,16.60
2019-03-24T18:05:37.167Z,16.40
2019-03-24T18:07:57.442Z,16.10
2019-03-24T18:10:17.607Z,15.90
2019-03-24T18:12:37.871Z,15.80
2019-03-24T18:14:58.193Z,15.70
2019-03-24T18:17:18.538Z,15.80
2019-03-24T18:19:38.865Z,15.70
2019-03-24T18:21:59.072Z,15.60
2019-03-24T18:24:19.525Z,15.50
2019-03-24T18:26:39.448Z,15.40
2019-03-24T18:28:59.502Z,15.40
2019-03-24T18:31:20.145Z,15.30
2019-03-24T18:33:40.795Z,15.20
2019-03-24T18:36:00.881Z,15.00
2019-03-24T18:38:21.944Z,14.90
2019-03-24T18:40:42.491Z,14.80
2019-03-24T18:43:04.258Z,14.80
2019-03-24T18:45:26.063Z,14.70
2019-03-24T18:47:48.090Z,14.70
2019-03-24T18:50:11.531Z,14.60
2019-03-24T18:52:34.313Z,14.50
2019-03-24T18:55:00.118Z,14.50
2019-03-24T18:57:22.518Z,14.40
2019-03-24T18:59:45.060Z,14.40
2019-03-24T19:02:08.392Z,14.30
2019-03-24T19:04:31.015Z,14.30
2019-03-24T19:06:53.862Z,14.30
2019-03-24T19:09:16.779Z,14.30
2019-03-24T19:11:39.523Z,14.30
2019-03-24T19:14:01.531Z,14.20
2019-03-24T19:16:23.977Z,13.90
2019-03-24T19:18:45.944Z,13.90
2019-03-24T19:21:07.729Z,13.90
2019-03-24T19:23:29.984Z,13.80
2019-03-24T19:25:51.496Z,13.70
2019-03-24T19:28:14.608Z,13.70
2019-03-24T19:30:38.635Z,13.70
2019-03-24T19:33:00.272Z,13.40
2019-03-24T19:35:21.638Z,13.30
2019-03-24T19:37:45.330Z,13.30
2019-03-24T19:40:10.440Z,13.40
2019-03-24T19:42:33.825Z,13.30
2019-03-24T19:44:56.542Z,13.20
2019-03-24T19:47:17.113Z,13.10
2019-03-24T19:49:37.677Z,13.00
2019-03-24T19:51:58.147Z,13.00
2019-03-24T19:54:18.815Z,13.00
2019-03-24T19:56:39.441Z,13.00
2019-03-24T19:58:59.445Z,12.80
2019-03-24T20:01:20.490Z,12.70
2019-03-24T20:03:40.376Z,12.70
2019-03-24T20:06:01.226Z,12.60
2019-03-24T20:08:21.882Z,12.60
2019-03-24T20:10:41.994Z,12.50
2019-03-24T20:13:01.983Z,12.40
2019-03-24T20:15:22.023Z,12.40
2019-03-24T20:17:42.123Z,12.40
2019-03-24T20:20:02.175Z,12.40
2019-03-24T20:22:29.444Z,12.30
2019-03-24T20:24:50.061Z,12.20
2019-03-24T20:27:10.604Z,12.10
2019-03-24T20:29:31.154Z,12.10
2019-03-24T20:31:51.136Z,11.90
2019-03-24T20:34:11.309Z,11.80
2019-03-24T20:36:31.923Z,11.80
2019-03-24T20:38:51.840Z,11.70
2019-03-24T20:41:31.633Z,11.80
2019-03-24T20:43:52.216Z,11.90
2019-03-24T20:46:12.841Z,11.90
2019-03-24T20:48:33.643Z,11.90
2019-03-24T20:50:53.676Z,11.80
2019-03-24T20:53:18.358Z,11.70
2019-03-24T20:55:35.895Z,11.70
2019-03-24T20:57:55.805Z,11.70
2019-03-24T21:00:19.605Z,11.70
2019-03-24T21:02:40.281Z,11.60
2019-03-24T21:05:00.913Z,11.60
2019-03-24T21:07:21.627Z,11.50
2019-03-24T21:09:42.222Z,11.40
2019-03-24T21:12:02.813Z,11.40
2019-03-24T21:14:22.776Z,11.40
2019-03-24T21:16:44.429Z,11.30
2019-03-24T21:19:06.221Z,11.20
2019-03-24T21:21:26.766Z,11.40
2019-03-24T21:23:51.010Z,11.30
2019-03-24T21:26:11.270Z,11.10
2019-03-24T21:28:37.083Z,10.90
2019-03-24T21:30:57.260Z,10.90
2019-03-24T21:33:19.346Z,10.80
2019-03-24T21:35:40.016Z,10.70
2019-03-24T21:38:00.555Z,10.70
2019-03-24T21:40:21.198Z,10.70
2019-03-24T21:42:41.725Z,10.80
2019-03-24T21:45:02.280Z,10.70
2019-03-24T21:47:22.406Z,10.70
2019-03-24T21:49:42.969Z,10.60
2019-03-24T21:52:03.569Z,10.60
2019-03-24T21:54:24.227Z,10.50
2019-03-24T21:56:44.793Z,10.50
2019-03-24T21:59:05.410Z,10.40
2019-03-24T22:01:25.899Z,10.30
2019-03-24T22:03:46.441Z,10.30
2019-03-24T22:06:07.054Z,10.30
2019-03-24T22:08:27.557Z,10.30
2019-03-24T22:10:48.158Z,10.30
2019-03-24T22:13:08.696Z,10.20
2019-03-24T22:15:29.255Z,10.40
2019-03-24T22:17:49.873Z,10.30
2019-03-24T22:20:09.981Z,10.10
2019-03-24T22:22:30.576Z,10.10
2019-03-24T22:24:51.156Z,10.10
2019-03-24T22:27:11.715Z,10.00
2019-03-24T22:29:32.296Z,10.00
2019-03-24T22:31:52.853Z,10.10
2019-03-24T22:34:15.101Z,10.20
2019-03-24T22:36:35.698Z,10.10
2019-03-24T22:38:56.589Z,10.10
2019-03-24T22:41:17.120Z,10.10
2019-03-24T22:43:37.019Z,10.10
2019-03-24T22:45:57.609Z,10.20
2019-03-24T22:48:27.399Z,10.10
2019-03-24T22:50:47.985Z,10.10
2019-03-24T22:53:08.603Z,10.00
2019-03-24T22:55:29.262Z,10.00
2019-03-24T22:57:49.897Z,10.10
2019-03-24T23:00:14.351Z,10.20
2019-03-24T23:02:36.633Z,10.10
2019-03-24T23:04:57.193Z,10.00
2019-03-24T23:07:17.652Z,9.90
2019-03-24T23:09:38.157Z,10.00
2019-03-24T23:11:58.925Z,9.90
2019-03-24T23:14:19.910Z,9.90
2019-03-24T23:16:40.574Z,10.00
2019-03-24T23:19:01.153Z,10.10
2019-03-24T23:21:21.725Z,9.90
2019-03-24T23:23:42.272Z,9.90
2019-03-24T23:26:03.013Z,9.90
2019-03-24T23:28:42.916Z,10.00
2019-03-24T23:31:03.541Z,10.00
2019-03-24T23:33:24.113Z,9.80
2019-03-24T23:35:44.069Z,9.70
2019-03-24T23:38:04.608Z,9.80
2019-03-24T23:40:25.140Z,9.80
2019-03-24T23:42:45.817Z,9.80
2019-03-24T23:45:10.317Z,9.70
2019-03-24T23:47:30.852Z,9.90
2019-03-24T23:49:51.481Z,9.90
2019-03-24T23:52:12.036Z,9.90
2019-03-24T23:54:32.788Z,9.90
2019-03-24T23:56:53.439Z,9.90
2019-03-24T23:59:14.123Z,9.90
